URRP

Platov International Airport

Airport
ICAO code
URRP
IATA Code
ROV
Summary
ICAO Region
EUR
ICAO Territory
Location

Grushevskaya, Rostov Oblast

Serving
Rostov-on-Don
Elevation
213 ft
Coordinates
47° 29' 38" N , 39° 55' 29" E
KCC
Metar
URRP 280300Z 10008MPS CAVOK M02/M08 Q1032 R05/CLRD70 NOSIG RMK QFE769/1026

Platov International Airport is an airport close to the stanitsa of Grushevskaya, Aksaysky District, Rostov Oblast, Russia near the city of Novocherkassk northeast of Rostov-on-Don. It serves Rostov-on-Don (as a replacement for the old Rostov-on-Don Airport.

Climatology

Humid continental climate (Köppen climate classification Dfa)

Airport map

Aerial View

SKYbrary Partners:

Safety knowledge contributed by: